createdAt,value
2023-01-02T00:00:00.604Z,5.6
2023-01-02T00:01:00.710Z,5.6
2023-01-02T00:02:00.556Z,5.6
2023-01-02T00:03:00.661Z,5.6
2023-01-02T00:04:00.735Z,5.6
2023-01-02T00:05:00.568Z,5.6
2023-01-02T00:06:00.574Z,5.6
2023-01-02T00:07:00.559Z,5.6
2023-01-02T00:08:00.576Z,5.6
2023-01-02T00:09:00.571Z,5.5
2023-01-02T00:10:00.567Z,5.5
2023-01-02T00:11:00.568Z,5.4
2023-01-02T00:12:00.559Z,5.4
2023-01-02T00:13:00.568Z,5.5
2023-01-02T00:14:00.581Z,5.5
2023-01-02T00:15:00.571Z,5.5
2023-01-02T00:16:00.651Z,5.5
2023-01-02T00:17:00.585Z,5.4
2023-01-02T00:18:00.570Z,5.5
2023-01-02T00:19:00.587Z,5.4
2023-01-02T00:20:00.598Z,5.4
2023-01-02T00:21:00.587Z,5.4
2023-01-02T00:22:00.574Z,5.4
2023-01-02T00:23:00.604Z,5.4
2023-01-02T00:24:00.587Z,5.4
2023-01-02T00:25:00.593Z,5.4
2023-01-02T00:26:00.582Z,5.4
2023-01-02T00:27:00.577Z,5.4
2023-01-02T00:28:00.580Z,5.4
2023-01-02T00:29:00.605Z,5.4
2023-01-02T00:30:00.620Z,5.4
2023-01-02T00:31:00.677Z,5.4
2023-01-02T00:32:00.580Z,5.4
2023-01-02T00:33:00.578Z,5.4
2023-01-02T00:34:00.589Z,5.4
2023-01-02T00:35:00.611Z,5.4
2023-01-02T00:36:00.584Z,5.4
2023-01-02T00:37:00.584Z,5.4
2023-01-02T00:38:00.608Z,5.4
2023-01-02T00:39:00.595Z,5.4
2023-01-02T00:40:00.622Z,5.4
2023-01-02T00:41:00.595Z,5.4
2023-01-02T00:42:00.599Z,5.4
2023-01-02T00:43:00.611Z,5.4
2023-01-02T00:44:00.619Z,5.4
2023-01-02T00:45:00.637Z,5.4
2023-01-02T00:46:03.598Z,5.4
2023-01-02T00:47:00.657Z,5.4
2023-01-02T00:48:00.601Z,5.4
2023-01-02T00:49:00.605Z,5.4
2023-01-02T00:50:00.632Z,5.4
2023-01-02T00:51:00.604Z,5.4
2023-01-02T00:52:00.607Z,5.4
2023-01-02T00:53:00.621Z,5.4
2023-01-02T00:54:00.625Z,5.4
2023-01-02T00:55:00.632Z,5.4
2023-01-02T00:56:00.619Z,5.4
2023-01-02T00:57:00.636Z,5.4
2023-01-02T00:58:00.621Z,5.4
2023-01-02T00:59:00.610Z,5.4
2023-01-02T01:00:00.632Z,5.4
2023-01-02T01:01:00.695Z,5.4
2023-01-02T01:02:00.702Z,5.4
2023-01-02T01:03:00.674Z,5.4
2023-01-02T01:04:00.617Z,5.4
2023-01-02T01:05:00.673Z,5.3
2023-01-02T01:06:00.635Z,5.4
2023-01-02T01:07:00.620Z,5.4
2023-01-02T01:08:00.642Z,5.4
2023-01-02T01:09:00.637Z,5.4
2023-01-02T01:10:00.623Z,5.3
2023-01-02T01:11:00.648Z,5.4
2023-01-02T01:12:04.683Z,5.4
2023-01-02T01:13:00.635Z,5.3
2023-01-02T01:14:00.681Z,5.3
2023-01-02T01:15:00.656Z,5.3
2023-01-02T01:16:00.711Z,5.3
2023-01-02T01:17:00.641Z,5.3
2023-01-02T01:18:00.649Z,5.3
2023-01-02T01:19:00.645Z,5.3
2023-01-02T01:20:00.658Z,5.4
2023-01-02T01:21:00.648Z,5.4
2023-01-02T01:22:00.639Z,5.4
2023-01-02T01:23:00.649Z,5.4
2023-01-02T01:24:00.716Z,5.4
2023-01-02T01:25:00.681Z,5.4
2023-01-02T01:26:00.659Z,5.4
2023-01-02T01:27:00.644Z,5.4
2023-01-02T01:28:00.640Z,5.4
2023-01-02T01:29:00.659Z,5.4
2023-01-02T01:30:00.648Z,5.4
2023-01-02T01:31:00.662Z,5.4
2023-01-02T01:32:00.704Z,5.4
2023-01-02T01:33:00.655Z,5.4
2023-01-02T01:34:00.670Z,5.3
2023-01-02T01:35:00.659Z,5.3
2023-01-02T01:36:00.677Z,5.3
2023-01-02T01:37:00.643Z,5.3
2023-01-02T01:38:00.664Z,5.3
2023-01-02T01:39:00.647Z,5.2
2023-01-02T01:40:00.656Z,5.2
2023-01-02T01:41:00.680Z,5.2
2023-01-02T01:42:00.668Z,5.2
2023-01-02T01:43:01.020Z,5.2
2023-01-02T01:44:00.669Z,5.2
2023-01-02T01:45:00.659Z,5.1
2023-01-02T01:46:00.703Z,5.1
2023-01-02T01:47:00.671Z,5.1
2023-01-02T01:48:00.684Z,5.1
2023-01-02T01:49:00.657Z,5.1
2023-01-02T01:50:05.178Z,5.1
2023-01-02T01:51:00.722Z,5
2023-01-02T01:52:00.664Z,5
2023-01-02T01:53:00.667Z,4.9
2023-01-02T01:54:00.678Z,4.9
2023-01-02T01:55:00.658Z,4.9
2023-01-02T01:56:00.678Z,4.9
2023-01-02T01:57:00.682Z,4.9
2023-01-02T01:58:00.673Z,4.9
2023-01-02T01:59:00.675Z,4.9
2023-01-02T02:00:00.709Z,4.9
2023-01-02T02:01:00.813Z,4.9
2023-01-02T02:02:00.973Z,5
2023-01-02T02:03:00.755Z,5
2023-01-02T02:04:00.688Z,5
2023-01-02T02:05:00.671Z,5
2023-01-02T02:06:00.719Z,5.1
2023-01-02T02:07:00.706Z,5.1
2023-01-02T02:08:00.688Z,5.1
2023-01-02T02:09:00.725Z,5.1
2023-01-02T02:10:00.699Z,5.1
2023-01-02T02:11:00.694Z,5.1
2023-01-02T02:12:00.685Z,5.1
2023-01-02T02:13:00.693Z,5.1
2023-01-02T02:14:00.699Z,5.1
2023-01-02T02:15:00.682Z,5.2
2023-01-02T02:16:00.712Z,5.1
2023-01-02T02:17:00.713Z,5.1
2023-01-02T02:18:00.704Z,5.1
2023-01-02T02:19:00.734Z,5.1
2023-01-02T02:20:00.694Z,5.1
2023-01-02T02:21:00.738Z,5.1
2023-01-02T02:22:00.698Z,5.1
2023-01-02T02:23:00.688Z,5.1
2023-01-02T02:24:00.707Z,5
2023-01-02T02:25:00.689Z,5
2023-01-02T02:26:00.712Z,5
2023-01-02T02:27:00.692Z,4.9
2023-01-02T02:28:00.707Z,4.9
2023-01-02T02:29:00.716Z,4.9
2023-01-02T02:30:00.695Z,4.9
2023-01-02T02:31:00.716Z,4.9
2023-01-02T02:32:00.779Z,4.9
2023-01-02T02:33:00.680Z,4.9
2023-01-02T02:34:00.643Z,4.8
2023-01-02T02:35:00.684Z,4.8
2023-01-02T02:36:00.620Z,4.8
2023-01-02T02:37:00.559Z,4.8
2023-01-02T02:38:00.552Z,4.8
2023-01-02T02:39:00.512Z,4.8
2023-01-02T02:40:00.470Z,4.8
2023-01-02T02:41:00.465Z,4.8
2023-01-02T02:42:00.413Z,4.8
2023-01-02T02:43:00.584Z,4.8
2023-01-02T02:44:00.596Z,4.8
2023-01-02T02:45:00.540Z,4.8
2023-01-02T02:46:00.706Z,4.8
2023-01-02T02:47:00.606Z,4.8
2023-01-02T02:48:00.560Z,4.8
2023-01-02T02:49:00.545Z,4.8
2023-01-02T02:50:00.537Z,4.8
2023-01-02T02:51:00.576Z,4.8
2023-01-02T02:52:00.615Z,4.8
2023-01-02T02:53:00.474Z,4.8
2023-01-02T02:54:00.425Z,4.8
2023-01-02T02:55:00.492Z,4.8
2023-01-02T02:56:00.550Z,4.8
2023-01-02T02:57:00.506Z,4.8
2023-01-02T02:58:00.404Z,4.8
2023-01-02T02:59:00.372Z,4.8
2023-01-02T03:00:00.373Z,4.8
2023-01-02T03:01:01.092Z,4.8
2023-01-02T03:02:01.271Z,4.8
2023-01-02T03:03:01.174Z,4.8
2023-01-02T03:04:01.066Z,4.8
2023-01-02T03:05:01.063Z,4.8
2023-01-02T03:06:01.075Z,4.7
2023-01-02T03:07:01.097Z,4.7
2023-01-02T03:08:01.079Z,4.7
2023-01-02T03:09:01.057Z,4.7
2023-01-02T03:10:01.142Z,4.7
2023-01-02T03:11:01.084Z,4.7
2023-01-02T03:12:01.117Z,4.7
2023-01-02T03:13:01.065Z,4.7
2023-01-02T03:14:01.105Z,4.6
2023-01-02T03:15:01.099Z,4.6
2023-01-02T03:16:01.114Z,4.6
2023-01-02T03:17:01.168Z,4.6
2023-01-02T03:18:01.073Z,4.6
2023-01-02T03:19:01.092Z,4.6
2023-01-02T03:20:01.105Z,4.6
2023-01-02T03:21:01.095Z,4.6
2023-01-02T03:22:01.895Z,4.6
2023-01-02T03:23:01.085Z,4.6
2023-01-02T03:24:01.104Z,4.6
2023-01-02T03:25:01.084Z,4.6
2023-01-02T03:26:01.132Z,4.5
2023-01-02T03:27:01.105Z,4.5
2023-01-02T03:28:01.075Z,4.5
2023-01-02T03:29:01.086Z,4.5
2023-01-02T03:30:01.164Z,4.5
2023-01-02T03:31:01.150Z,4.5
2023-01-02T03:32:01.121Z,4.5
2023-01-02T03:33:01.103Z,4.5
2023-01-02T03:34:01.083Z,4.5
2023-01-02T03:35:01.101Z,4.4
2023-01-02T03:36:01.105Z,4.5
2023-01-02T03:37:01.120Z,4.5
2023-01-02T03:38:01.112Z,4.5
2023-01-02T03:39:01.110Z,4.5
2023-01-02T03:40:01.137Z,4.5
2023-01-02T03:41:01.093Z,4.5
2023-01-02T03:42:01.117Z,4.5
2023-01-02T03:43:01.130Z,4.5
2023-01-02T03:44:01.122Z,4.5
2023-01-02T03:45:01.117Z,4.5
2023-01-02T03:46:01.182Z,4.5
2023-01-02T03:47:01.102Z,4.5
2023-01-02T03:48:01.144Z,4.6
2023-01-02T03:49:01.120Z,4.6
2023-01-02T03:50:01.151Z,4.5
2023-01-02T03:51:01.144Z,4.5
2023-01-02T03:52:01.106Z,4.5
2023-01-02T03:53:01.163Z,4.5
2023-01-02T03:54:01.132Z,4.5
2023-01-02T03:55:01.149Z,4.6
2023-01-02T03:56:01.121Z,4.6
2023-01-02T03:57:01.109Z,4.6
2023-01-02T03:58:01.123Z,4.5
2023-01-02T03:59:01.143Z,4.5
2023-01-02T04:00:01.330Z,4.6
2023-01-02T04:01:01.162Z,4.6
2023-01-02T04:02:01.197Z,4.5
2023-01-02T04:03:01.146Z,4.5
2023-01-02T04:04:01.157Z,4.6
2023-01-02T04:05:01.148Z,4.6
2023-01-02T04:06:01.133Z,4.6
2023-01-02T04:07:01.124Z,4.6
2023-01-02T04:08:01.158Z,4.6
2023-01-02T04:09:01.145Z,4.6
2023-01-02T04:10:01.162Z,4.6
2023-01-02T04:11:01.215Z,4.5
2023-01-02T04:12:01.145Z,4.5
2023-01-02T04:13:01.127Z,4.6
2023-01-02T04:14:01.155Z,4.6
2023-01-02T04:15:01.173Z,4.6
2023-01-02T04:16:01.227Z,4.6
2023-01-02T04:17:01.144Z,4.6
2023-01-02T04:18:01.190Z,4.6
2023-01-02T04:19:01.137Z,4.6
2023-01-02T04:20:01.250Z,4.6
2023-01-02T04:21:01.163Z,4.6
2023-01-02T04:22:01.162Z,4.6
2023-01-02T04:23:01.176Z,4.6
2023-01-02T04:24:01.157Z,4.6
2023-01-02T04:25:01.169Z,4.7
2023-01-02T04:26:01.170Z,4.7
2023-01-02T04:27:01.146Z,4.7
2023-01-02T04:28:01.143Z,4.7
2023-01-02T04:29:01.167Z,4.7
2023-01-02T04:30:01.317Z,4.8
2023-01-02T04:31:01.215Z,4.8
2023-01-02T04:32:01.172Z,4.7
2023-01-02T04:33:01.169Z,4.7
2023-01-02T04:34:01.172Z,4.8
2023-01-02T04:35:01.182Z,4.8
2023-01-02T04:36:01.176Z,4.8
2023-01-02T04:37:01.159Z,4.8
2023-01-02T04:38:01.201Z,4.8
2023-01-02T04:39:01.156Z,4.8
2023-01-02T04:40:01.199Z,4.8
2023-01-02T04:41:01.201Z,4.8
2023-01-02T04:42:01.152Z,4.9
2023-01-02T04:43:01.196Z,4.9
2023-01-02T04:44:01.191Z,4.9
2023-01-02T04:45:01.178Z,4.9
2023-01-02T04:46:01.247Z,4.9
2023-01-02T04:47:01.165Z,5
2023-01-02T04:48:01.190Z,5
2023-01-02T04:49:01.183Z,5
2023-01-02T04:50:01.203Z,5
2023-01-02T04:51:01.190Z,5
2023-01-02T04:52:01.217Z,5.1
2023-01-02T04:53:01.192Z,5.1
2023-01-02T04:54:01.190Z,5.1
2023-01-02T04:55:01.172Z,5.1
2023-01-02T04:56:01.190Z,5.1
2023-01-02T04:57:01.175Z,5.1
2023-01-02T04:58:01.226Z,5.1
2023-01-02T04:59:01.211Z,5.1
2023-01-02T05:00:01.221Z,5.1
2023-01-02T05:01:01.180Z,5.1
2023-01-02T05:02:01.292Z,5.1
2023-01-02T05:03:01.213Z,5.1
2023-01-02T05:04:01.175Z,5.1
2023-01-02T05:05:01.263Z,5.1
2023-01-02T05:06:01.196Z,5.1
2023-01-02T05:07:01.184Z,5.1
2023-01-02T05:08:01.211Z,5.1
2023-01-02T05:09:01.181Z,5.1
2023-01-02T05:10:01.202Z,5.1
2023-01-02T05:11:01.207Z,5.1
2023-01-02T05:12:01.194Z,5.1
2023-01-02T05:13:01.207Z,5.1
2023-01-02T05:14:06.997Z,5.1
2023-01-02T05:15:01.222Z,5
2023-01-02T05:16:01.256Z,5
2023-01-02T05:17:01.215Z,4.9
2023-01-02T05:18:01.225Z,4.9
2023-01-02T05:19:01.207Z,4.9
2023-01-02T05:20:01.221Z,4.9
2023-01-02T05:21:01.200Z,4.9
2023-01-02T05:22:01.224Z,4.9
2023-01-02T05:23:01.220Z,4.9
2023-01-02T05:24:01.238Z,4.9
2023-01-02T05:25:01.226Z,4.9
2023-01-02T05:26:01.207Z,4.9
2023-01-02T05:27:01.242Z,4.9
2023-01-02T05:28:01.231Z,4.9
2023-01-02T05:29:01.242Z,4.9
2023-01-02T05:30:01.270Z,4.9
2023-01-02T05:31:01.242Z,4.9
2023-01-02T05:32:01.335Z,4.9
2023-01-02T05:33:01.245Z,4.9
2023-01-02T05:34:01.236Z,4.9
2023-01-02T05:35:01.246Z,4.9
2023-01-02T05:36:01.216Z,4.9
2023-01-02T05:37:01.238Z,4.9
2023-01-02T05:38:01.276Z,4.9
2023-01-02T05:39:01.230Z,4.9
2023-01-02T05:40:01.240Z,4.9
2023-01-02T05:41:01.259Z,4.9
2023-01-02T05:42:01.222Z,4.9
2023-01-02T05:43:01.229Z,4.9
2023-01-02T05:44:01.247Z,4.8
2023-01-02T05:45:01.231Z,4.8
2023-01-02T05:46:01.263Z,4.8
2023-01-02T05:47:01.225Z,4.8
2023-01-02T05:48:01.225Z,4.8
2023-01-02T05:49:01.257Z,4.9
2023-01-02T05:50:01.256Z,4.8
2023-01-02T05:51:01.259Z,4.9
2023-01-02T05:52:01.236Z,4.9
2023-01-02T05:53:01.265Z,4.8
2023-01-02T05:54:01.243Z,4.8
2023-01-02T05:55:01.254Z,4.8
2023-01-02T05:56:01.250Z,4.8
2023-01-02T05:57:01.241Z,4.8
2023-01-02T05:58:01.239Z,4.8
2023-01-02T05:59:01.241Z,4.8
2023-01-02T06:00:01.307Z,4.8
2023-01-02T06:01:01.248Z,4.8
2023-01-02T06:02:01.354Z,4.8
2023-01-02T06:03:01.351Z,4.8
2023-01-02T06:04:01.301Z,4.8
2023-01-02T06:05:01.268Z,4.7
2023-01-02T06:06:01.249Z,4.8
2023-01-02T06:07:01.282Z,4.7
2023-01-02T06:08:01.279Z,4.7
2023-01-02T06:09:01.264Z,4.6
2023-01-02T06:10:01.276Z,4.6
2023-01-02T06:11:01.263Z,4.7
2023-01-02T06:12:01.260Z,4.6
2023-01-02T06:13:01.275Z,4.6
2023-01-02T06:14:01.254Z,4.6
2023-01-02T06:15:01.279Z,4.7
2023-01-02T06:16:01.326Z,4.6
2023-01-02T06:17:01.266Z,4.6
2023-01-02T06:18:01.275Z,4.6
2023-01-02T06:19:01.288Z,4.6
2023-01-02T06:20:01.297Z,4.6
2023-01-02T06:21:01.302Z,4.6
2023-01-02T06:22:01.267Z,4.6
2023-01-02T06:23:01.297Z,4.7
2023-01-02T06:24:01.278Z,4.7
2023-01-02T06:25:01.328Z,4.7
2023-01-02T06:26:01.270Z,4.7
2023-01-02T06:27:01.273Z,4.7
2023-01-02T06:28:01.289Z,4.7
2023-01-02T06:29:01.276Z,4.7
2023-01-02T06:30:01.296Z,4.8
2023-01-02T06:31:01.297Z,4.8
2023-01-02T06:32:01.316Z,4.8
2023-01-02T06:33:01.284Z,4.8
2023-01-02T06:34:01.288Z,4.8
2023-01-02T06:35:01.305Z,4.8
2023-01-02T06:36:01.279Z,4.8
2023-01-02T06:37:07.688Z,4.8
2023-01-02T06:38:01.297Z,4.8
2023-01-02T06:39:01.298Z,4.9
2023-01-02T06:40:01.313Z,4.9
2023-01-02T06:41:01.327Z,4.9
2023-01-02T06:42:01.295Z,4.9
2023-01-02T06:43:01.310Z,4.9
2023-01-02T06:44:01.284Z,4.9
2023-01-02T06:45:01.306Z,4.9
2023-01-02T06:46:01.364Z,4.9
2023-01-02T06:47:01.294Z,4.9
2023-01-02T06:48:01.312Z,4.9
2023-01-02T06:49:01.308Z,4.9
2023-01-02T06:50:01.325Z,4.9
2023-01-02T06:51:01.315Z,4.9
2023-01-02T06:52:01.308Z,4.9
2023-01-02T06:53:01.327Z,5
2023-01-02T06:54:01.316Z,5
2023-01-02T06:55:01.325Z,5
2023-01-02T06:56:01.297Z,5
2023-01-02T06:57:01.300Z,5
2023-01-02T06:58:06.795Z,5
2023-01-02T06:59:01.296Z,5
2023-01-02T07:00:01.317Z,5.1
2023-01-02T07:01:01.334Z,5.1
2023-01-02T07:02:01.565Z,5.1
2023-01-02T07:03:01.367Z,5.1
2023-01-02T07:04:01.303Z,5.1
2023-01-02T07:05:01.339Z,5.1
2023-01-02T07:06:01.325Z,5.1
2023-01-02T07:07:01.323Z,5.2
2023-01-02T07:08:01.313Z,5.2
2023-01-02T07:09:01.324Z,5.2
2023-01-02T07:10:01.345Z,5.2
2023-01-02T07:11:01.309Z,5.3
2023-01-02T07:12:01.313Z,5.4
2023-01-02T07:13:01.322Z,5.4
2023-01-02T07:14:01.325Z,5.4
2023-01-02T07:15:01.347Z,5.4
2023-01-02T07:16:01.416Z,5.4
2023-01-02T07:17:01.314Z,5.5
2023-01-02T07:18:01.317Z,5.5
2023-01-02T07:19:01.339Z,5.6
2023-01-02T07:20:02.525Z,5.6
2023-01-02T07:21:01.340Z,5.6
2023-01-02T07:22:01.333Z,5.7
2023-01-02T07:23:01.326Z,5.7
2023-01-02T07:24:01.343Z,5.8
2023-01-02T07:25:02.194Z,5.8
2023-01-02T07:26:01.351Z,5.8
2023-01-02T07:27:01.332Z,5.8
2023-01-02T07:28:01.345Z,5.9
2023-01-02T07:29:01.333Z,5.9
2023-01-02T07:30:01.332Z,5.9
2023-01-02T07:31:01.364Z,5.9
2023-01-02T07:32:01.420Z,6
2023-01-02T07:33:01.329Z,6
2023-01-02T07:34:01.334Z,6.1
2023-01-02T07:35:01.365Z,6.1
2023-01-02T07:36:01.356Z,6.1
2023-01-02T07:37:01.364Z,6.2
2023-01-02T07:38:01.343Z,6.2
2023-01-02T07:39:01.356Z,6.3
2023-01-02T07:40:01.359Z,6.2
2023-01-02T07:41:01.371Z,6.3
2023-01-02T07:42:01.338Z,6.3
2023-01-02T07:43:01.339Z,6.3
2023-01-02T07:44:01.354Z,6.3
2023-01-02T07:45:01.388Z,6.3
2023-01-02T07:46:01.410Z,6.3
2023-01-02T07:47:01.359Z,6.3
2023-01-02T07:48:01.366Z,6.3
2023-01-02T07:49:01.355Z,6.4
2023-01-02T07:50:01.366Z,6.4
2023-01-02T07:51:01.387Z,6.4
2023-01-02T07:52:01.360Z,6.4
2023-01-02T07:53:01.372Z,6.4
2023-01-02T07:54:01.379Z,6.5
2023-01-02T07:55:01.383Z,6.5
2023-01-02T07:56:01.370Z,6.5
2023-01-02T07:57:01.368Z,6.5
2023-01-02T07:58:01.360Z,6.5
2023-01-02T07:59:01.356Z,6.5
2023-01-02T08:00:01.407Z,6.5
2023-01-02T08:01:05.473Z,6.5
2023-01-02T08:02:01.573Z,6.5
2023-01-02T08:03:01.364Z,6.5
2023-01-02T08:04:01.383Z,6.5
2023-01-02T08:05:01.389Z,6.5
2023-01-02T08:06:01.381Z,6.5
2023-01-02T08:07:01.374Z,6.5
2023-01-02T08:08:01.367Z,6.5
2023-01-02T08:09:01.384Z,6.5
2023-01-02T08:10:01.397Z,6.5
2023-01-02T08:11:01.388Z,6.6
2023-01-02T08:12:01.374Z,6.6
2023-01-02T08:13:01.370Z,6.6
2023-01-02T08:14:01.377Z,6.6
2023-01-02T08:15:01.443Z,6.6
2023-01-02T08:16:01.397Z,6.6
2023-01-02T08:17:01.403Z,6.6
2023-01-02T08:18:01.385Z,6.6
2023-01-02T08:19:01.381Z,6.6
2023-01-02T08:20:07.167Z,6.6
2023-01-02T08:21:01.410Z,6.6
2023-01-02T08:22:01.383Z,6.7
2023-01-02T08:23:01.384Z,6.7
2023-01-02T08:24:01.405Z,6.7
2023-01-02T08:25:01.557Z,6.8
2023-01-02T08:26:01.402Z,6.8
2023-01-02T08:27:01.419Z,6.8
2023-01-02T08:28:01.383Z,6.8
2023-01-02T08:29:01.389Z,6.8
2023-01-02T08:30:02.184Z,6.8
2023-01-02T08:31:01.436Z,6.8
2023-01-02T08:32:01.434Z,6.8
2023-01-02T08:33:01.393Z,6.8
2023-01-02T08:34:00.422Z,6.8
2023-01-02T08:35:00.421Z,6.8
2023-01-02T08:36:00.414Z,6.8
2023-01-02T08:37:00.415Z,6.8
2023-01-02T08:38:00.396Z,6.8
2023-01-02T08:39:00.401Z,6.8
2023-01-02T08:40:00.432Z,6.8
2023-01-02T08:41:00.400Z,6.9
2023-01-02T08:42:00.425Z,6.9
2023-01-02T08:43:00.434Z,6.9
2023-01-02T08:44:00.410Z,6.9
2023-01-02T08:45:00.428Z,6.9
2023-01-02T08:46:00.418Z,6.9
2023-01-02T08:47:00.435Z,6.9
2023-01-02T08:48:00.447Z,6.9
2023-01-02T08:49:00.412Z,7
2023-01-02T08:50:00.421Z,7
2023-01-02T08:51:00.432Z,7
2023-01-02T08:52:00.461Z,7.1
2023-01-02T08:53:00.420Z,7.1
2023-01-02T08:54:00.428Z,7.1
2023-01-02T08:55:00.417Z,7.1
2023-01-02T08:56:00.417Z,7.1
2023-01-02T08:57:00.441Z,7.1
2023-01-02T08:58:00.418Z,7.1
2023-01-02T08:59:00.441Z,7.2
2023-01-02T09:00:00.422Z,7.2
2023-01-02T09:01:00.424Z,7.2
2023-01-02T09:02:00.570Z,7.2
2023-01-02T09:03:00.599Z,7.2
2023-01-02T09:04:02.697Z,7.3
2023-01-02T09:05:00.464Z,7.3
2023-01-02T09:06:00.437Z,7.4
2023-01-02T09:07:00.459Z,7.4
2023-01-02T09:08:00.433Z,7.4
2023-01-02T09:09:03.235Z,7.4
2023-01-02T09:10:00.452Z,7.4
2023-01-02T09:11:00.453Z,7.4
2023-01-02T09:14:00.307Z,7.6
2023-01-02T09:15:00.299Z,7.6
2023-01-02T09:16:00.415Z,7.7
2023-01-02T09:17:00.322Z,7.8
2023-01-02T09:18:00.270Z,7.9
2023-01-02T09:19:00.283Z,7.9
2023-01-02T09:20:00.299Z,7.9
2023-01-02T09:21:00.320Z,8
2023-01-02T09:22:00.286Z,8.1
2023-01-02T09:23:00.294Z,8.1
2023-01-02T09:24:00.276Z,8.2
2023-01-02T09:25:00.296Z,8.2
2023-01-02T09:26:00.306Z,8.3
2023-01-02T09:27:00.276Z,8.4
2023-01-02T09:28:00.295Z,8.4
2023-01-02T09:29:00.289Z,8.4
2023-01-02T09:30:00.285Z,8.5
2023-01-02T09:31:00.357Z,8.6
2023-01-02T09:32:00.326Z,8.6
2023-01-02T09:33:00.339Z,8.7
2023-01-02T09:34:00.298Z,8.8
2023-01-02T09:35:00.312Z,8.8
2023-01-02T09:36:00.307Z,8.9
2023-01-02T09:37:00.284Z,8.9
2023-01-02T09:38:00.321Z,8.9
2023-01-02T09:39:00.300Z,8.9
2023-01-02T09:40:00.295Z,9
2023-01-02T09:41:00.322Z,9
2023-01-02T09:42:00.316Z,9
2023-01-02T09:43:00.298Z,9.1
2023-01-02T09:44:00.295Z,9.1
2023-01-02T09:45:04.649Z,9.1
2023-01-02T09:46:00.365Z,9.1
2023-01-02T09:47:00.346Z,9.1
2023-01-02T09:48:00.301Z,9.1
2023-01-02T09:49:00.297Z,9.1
2023-01-02T09:50:00.295Z,9.1
2023-01-02T09:51:07.172Z,9.2
2023-01-02T09:52:00.336Z,9.2
2023-01-02T09:53:00.306Z,9.2
2023-01-02T09:54:00.382Z,9.2
2023-01-02T09:55:00.306Z,9.3
2023-01-02T09:56:00.343Z,9.4
2023-01-02T09:57:00.331Z,9.4
2023-01-02T09:58:00.355Z,9.4
2023-01-02T09:59:00.314Z,9.4
2023-01-02T10:00:00.311Z,9.4
2023-01-02T10:01:00.347Z,9.5
2023-01-02T10:02:00.373Z,9.5
2023-01-02T10:03:04.352Z,9.6
2023-01-02T10:04:00.448Z,9.6
2023-01-02T10:05:00.323Z,9.6
2023-01-02T10:06:00.365Z,9.7
2023-01-02T10:07:00.319Z,9.7
2023-01-02T10:08:00.319Z,9.7
2023-01-02T10:09:00.344Z,9.8
2023-01-02T10:10:00.331Z,9.8
2023-01-02T10:11:00.341Z,9.8
2023-01-02T10:12:00.320Z,9.9
2023-01-02T10:13:00.323Z,9.9
2023-01-02T10:14:20.499Z,9.9
2023-01-02T10:15:00.346Z,9.9
2023-01-02T10:16:00.405Z,9.9
2023-01-02T10:17:00.359Z,10
2023-01-02T10:18:00.345Z,10
2023-01-02T10:19:00.327Z,10
2023-01-02T10:20:00.338Z,10.1
2023-01-02T10:21:00.379Z,10.1
2023-01-02T10:22:00.401Z,10.1
2023-01-02T10:23:00.348Z,10.1
2023-01-02T10:24:00.338Z,10.1
2023-01-02T10:25:00.367Z,10.1
2023-01-02T10:26:00.352Z,10.1
2023-01-02T10:27:00.337Z,10.1
2023-01-02T10:28:00.337Z,10.2
2023-01-02T10:29:00.371Z,10.2
2023-01-02T10:30:00.393Z,10.2
2023-01-02T10:31:05.375Z,10.2
2023-01-02T10:32:00.367Z,10.2
2023-01-02T10:33:00.347Z,10.2
2023-01-02T10:34:00.359Z,10.3
2023-01-02T10:35:00.370Z,10.3
2023-01-02T10:36:00.343Z,10.4
2023-01-02T10:37:06.089Z,10.4
2023-01-02T10:38:00.348Z,10.4
2023-01-02T10:39:00.371Z,10.4
2023-01-02T10:40:00.416Z,10.5
2023-01-02T10:41:00.359Z,10.5
2023-01-02T10:42:00.360Z,10.5
2023-01-02T10:43:00.435Z,10.6
2023-01-02T10:44:00.386Z,10.6
2023-01-02T10:45:00.400Z,10.6
2023-01-02T10:46:00.363Z,10.6
2023-01-02T10:47:00.378Z,10.6
2023-01-02T10:48:00.391Z,10.7
2023-01-02T10:49:00.361Z,10.6
2023-01-02T10:50:00.381Z,10.7
2023-01-02T10:51:00.365Z,10.7
2023-01-02T10:52:00.378Z,10.7
2023-01-02T10:53:00.388Z,10.8
2023-01-02T10:54:00.369Z,10.8
2023-01-02T10:55:00.790Z,10.8
2023-01-02T10:56:00.412Z,10.8
2023-01-02T10:57:00.367Z,10.8
2023-01-02T10:58:00.389Z,10.8
2023-01-02T10:59:00.389Z,10.8
2023-01-02T11:00:00.394Z,10.8
2023-01-02T11:01:00.424Z,10.8
2023-01-02T11:02:00.578Z,10.8
2023-01-02T11:03:00.462Z,10.8
2023-01-02T11:04:00.387Z,10.8
2023-01-02T11:05:00.401Z,10.8
2023-01-02T11:06:23.190Z,10.8
2023-01-02T11:07:00.398Z,10.8
2023-01-02T11:08:00.393Z,10.8
2023-01-02T11:09:00.394Z,10.8
2023-01-02T11:10:00.386Z,10.8
2023-01-02T11:11:00.412Z,10.9
2023-01-02T11:12:00.388Z,10.8
2023-01-02T11:13:00.398Z,10.9
2023-01-02T11:14:00.399Z,10.9
2023-01-02T11:15:00.439Z,10.9
2023-01-02T11:16:00.560Z,11
2023-01-02T11:17:00.425Z,11
2023-01-02T11:18:00.399Z,11.1
2023-01-02T11:19:00.420Z,11.1
2023-01-02T11:20:00.416Z,11.1
2023-01-02T11:21:00.394Z,11.2
2023-01-02T11:22:00.396Z,11.2
2023-01-02T11:23:00.415Z,11.2
2023-01-02T11:24:00.418Z,11.2
2023-01-02T11:25:01.078Z,11.2
2023-01-02T11:26:00.405Z,11.2
2023-01-02T11:27:00.408Z,11.2
2023-01-02T11:28:00.407Z,11.2
2023-01-02T11:29:00.437Z,11.2
2023-01-02T11:30:00.429Z,11.2
2023-01-02T11:31:00.415Z,11.2
2023-01-02T11:32:00.702Z,11.2
2023-01-02T11:33:00.419Z,11.2
2023-01-02T11:34:00.447Z,11.2
2023-01-02T11:35:00.430Z,11.2
2023-01-02T11:36:00.409Z,11.2
2023-01-02T11:37:00.411Z,11.2
2023-01-02T11:38:00.412Z,11.2
2023-01-02T11:39:00.434Z,11.2
2023-01-02T11:40:00.428Z,11.2
2023-01-02T11:41:00.424Z,11.1
2023-01-02T11:42:00.437Z,11.1
2023-01-02T11:43:00.451Z,11.1
2023-01-02T11:44:00.450Z,11.1
2023-01-02T11:45:00.427Z,11.1
2023-01-02T11:46:00.508Z,11.1
2023-01-02T11:47:00.440Z,11.1
2023-01-02T11:48:00.451Z,11.1
2023-01-02T11:49:00.445Z,11.2
2023-01-02T11:50:00.509Z,11.2
2023-01-02T11:51:00.442Z,11.2
2023-01-02T11:52:00.445Z,11.2
2023-01-02T11:53:00.463Z,11.2
2023-01-02T11:54:00.464Z,11.2
2023-01-02T11:55:00.439Z,11.2
2023-01-02T11:56:00.440Z,11.2
2023-01-02T11:57:00.497Z,11.2
2023-01-02T11:58:00.465Z,11.2
2023-01-02T11:59:00.463Z,11.2
2023-01-02T12:00:00.484Z,11.2
2023-01-02T12:01:00.440Z,11.2
2023-01-02T12:02:00.628Z,11.2
2023-01-02T12:03:00.597Z,11.3
2023-01-02T12:04:00.501Z,11.3
2023-01-02T12:05:00.461Z,11.3
2023-01-02T12:06:00.457Z,11.3
2023-01-02T12:07:00.463Z,11.4
2023-01-02T12:08:00.464Z,11.4
2023-01-02T12:09:00.463Z,11.4
2023-01-02T12:10:00.551Z,11.4
2023-01-02T12:11:00.459Z,11.4
2023-01-02T12:12:00.517Z,11.4
2023-01-02T12:13:00.462Z,11.4
2023-01-02T12:14:00.455Z,11.5
2023-01-02T12:15:00.490Z,11.6
2023-01-02T12:16:00.480Z,11.6
2023-01-02T12:17:00.525Z,11.6
2023-01-02T12:18:00.458Z,11.7
2023-01-02T12:19:00.484Z,11.7
2023-01-02T12:20:05.360Z,11.8
2023-01-02T12:21:00.487Z,11.8
2023-01-02T12:22:00.482Z,11.8
2023-01-02T12:23:00.475Z,11.8
2023-01-02T12:24:00.518Z,11.9
2023-01-02T12:25:00.474Z,11.9
2023-01-02T12:26:05.594Z,11.9
2023-01-02T12:27:00.484Z,12
2023-01-02T12:28:00.484Z,12.1
2023-01-02T12:29:00.472Z,12.1
2023-01-02T12:30:00.522Z,12.1
2023-01-02T12:31:00.489Z,12.1
2023-01-02T12:32:06.235Z,12.2
2023-01-02T12:33:00.470Z,12.2
2023-01-02T12:34:00.499Z,12.2
2023-01-02T12:35:00.514Z,12.2
2023-01-02T12:36:00.514Z,12.2
2023-01-02T12:37:00.495Z,12.2
2023-01-02T12:38:00.497Z,12.2
2023-01-02T12:39:00.485Z,12.3
2023-01-02T12:40:00.560Z,12.4
2023-01-02T12:41:00.477Z,12.4
2023-01-02T12:42:02.395Z,12.4
2023-01-02T12:43:00.503Z,12.4
2023-01-02T12:44:00.496Z,12.5
2023-01-02T12:45:00.512Z,12.5
2023-01-02T12:46:00.582Z,12.6
2023-01-02T12:47:00.487Z,12.6
2023-01-02T12:48:00.504Z,12.6
2023-01-02T12:49:00.495Z,12.7
2023-01-02T12:50:00.501Z,12.7
2023-01-02T12:51:00.506Z,12.8
2023-01-02T12:52:00.502Z,12.8
2023-01-02T12:53:00.519Z,12.9
2023-01-02T12:54:19.997Z,12.9
2023-01-02T12:55:00.517Z,12.9
2023-01-02T12:57:00.500Z,13
2023-01-02T12:58:00.509Z,13
2023-01-02T12:59:00.485Z,13.1
2023-01-02T13:00:00.500Z,13.1
2023-01-02T13:01:00.508Z,13.1
2023-01-02T13:02:00.640Z,13.1
2023-01-02T13:03:00.556Z,13.1
2023-01-02T13:04:00.459Z,13.1
2023-01-02T13:05:00.493Z,13.1
2023-01-02T13:06:00.464Z,13.1
2023-01-02T13:07:00.487Z,13.1
2023-01-02T13:08:00.486Z,13.1
2023-01-02T13:09:00.488Z,13.1
2023-01-02T13:10:00.475Z,13.1
2023-01-02T13:11:00.483Z,13.1
2023-01-02T13:12:00.497Z,13.1
2023-01-02T13:13:00.482Z,13.1
2023-01-02T13:14:00.473Z,13.1
2023-01-02T13:15:00.507Z,13
2023-01-02T13:16:03.390Z,13
2023-01-02T13:17:00.556Z,13
2023-01-02T13:18:00.495Z,13
2023-01-02T13:19:01.192Z,13
2023-01-02T13:20:00.482Z,13.1
2023-01-02T13:21:00.492Z,13.1
2023-01-02T13:22:00.510Z,13.1
2023-01-02T13:23:00.476Z,13.1
2023-01-02T13:24:00.481Z,13.1
2023-01-02T13:25:00.495Z,13.1
2023-01-02T13:26:00.516Z,13.1
2023-01-02T13:27:00.514Z,13.1
2023-01-02T13:28:00.490Z,13.2
2023-01-02T13:29:00.965Z,13.2
2023-01-02T13:30:00.515Z,13.2
2023-01-02T13:31:27.145Z,13.2
2023-01-02T13:32:00.628Z,13.2
2023-01-02T13:33:00.497Z,13.2
2023-01-02T13:34:00.503Z,13.3
2023-01-02T13:35:00.493Z,13.4
2023-01-02T13:36:00.510Z,13.3
2023-01-02T13:37:00.501Z,13.3
2023-01-02T13:38:00.493Z,13.3
2023-01-02T13:39:00.554Z,13.3
2023-01-02T13:40:00.512Z,13.2
2023-01-02T13:41:00.515Z,13.2
2023-01-02T13:42:05.618Z,13.2
2023-01-02T13:43:00.502Z,13.2
2023-01-02T13:44:00.509Z,13.3